sensor_id;sensor_type;location;lat;lon;timestamp;temperature;humidity
7117;DHT22;3600;48.568;7.870;2022-09-13T00:01:03;16.40;99.90
7117;DHT22;3600;48.568;7.870;2022-09-13T00:03:30;16.40;99.90
7117;DHT22;3600;48.568;7.870;2022-09-13T00:05:57;16.50;99.90
7117;DHT22;3600;48.568;7.870;2022-09-13T00:08:25;16.70;99.90
7117;DHT22;3600;48.568;7.870;2022-09-13T00:10:51;16.80;99.90
7117;DHT22;3600;48.568;7.870;2022-09-13T00:13:18;16.90;99.90
7117;DHT22;3600;48.568;7.870;2022-09-13T00:15:47;17.00;99.90
7117;DHT22;3600;48.568;7.870;2022-09-13T00:18:16;17.10;99.90
7117;DHT22;3600;48.568;7.870;2022-09-13T00:20:43;17.10;99.90
7117;DHT22;3600;48.568;7.870;2022-09-13T00:23:11;17.10;99.90
7117;DHT22;3600;48.568;7.870;2022-09-13T00:25:38;17.00;99.90
7117;DHT22;3600;48.568;7.870;2022-09-13T00:28:05;16.90;99.90
7117;DHT22;3600;48.568;7.870;2022-09-13T00:30:31;16.90;99.90
7117;DHT22;3600;48.568;7.870;2022-09-13T00:32:59;16.90;99.90
7117;DHT22;3600;48.568;7.870;2022-09-13T00:35:30;17.00;99.90
7117;DHT22;3600;48.568;7.870;2022-09-13T00:37:58;16.80;99.90
7117;DHT22;3600;48.568;7.870;2022-09-13T00:40:25;16.70;99.90
7117;DHT22;3600;48.568;7.870;2022-09-13T00:42:52;16.60;99.90
7117;DHT22;3600;48.568;7.870;2022-09-13T00:45:19;16.60;99.90
7117;DHT22;3600;48.568;7.870;2022-09-13T00:48:00;16.50;99.90
7117;DHT22;3600;48.568;7.870;2022-09-13T00:50:40;16.40;99.90
7117;DHT22;3600;48.568;7.870;2022-09-13T00:53:25;16.40;99.90
7117;DHT22;3600;48.568;7.870;2022-09-13T00:56:02;16.40;99.90
7117;DHT22;3600;48.568;7.870;2022-09-13T00:58:36;16.30;99.90
7117;DHT22;3600;48.568;7.870;2022-09-13T01:01:04;16.30;99.90
7117;DHT22;3600;48.568;7.870;2022-09-13T01:03:34;16.30;99.90
7117;DHT22;3600;48.568;7.870;2022-09-13T01:06:12;16.30;99.90
7117;DHT22;3600;48.568;7.870;2022-09-13T01:08:42;16.20;99.90
7117;DHT22;3600;48.568;7.870;2022-09-13T01:11:18;16.20;99.90
7117;DHT22;3600;48.568;7.870;2022-09-13T01:13:46;16.20;99.90
7117;DHT22;3600;48.568;7.870;2022-09-13T01:16:13;16.10;99.90
7117;DHT22;3600;48.568;7.870;2022-09-13T01:18:40;16.10;99.90
7117;DHT22;3600;48.568;7.870;2022-09-13T01:21:38;16.10;99.90
7117;DHT22;3600;48.568;7.870;2022-09-13T01:35:56;16.00;99.90
7117;DHT22;3600;48.568;7.870;2022-09-13T01:38:51;15.80;99.90
7117;DHT22;3600;48.568;7.870;2022-09-13T01:47:24;15.60;99.90
7117;DHT22;3600;48.568;7.870;2022-09-13T01:55:23;15.70;99.90
7117;DHT22;3600;48.568;7.870;2022-09-13T01:57:59;15.70;99.90
7117;DHT22;3600;48.568;7.870;2022-09-13T02:00:33;15.80;99.90
7117;DHT22;3600;48.568;7.870;2022-09-13T02:03:09;15.80;99.90
7117;DHT22;3600;48.568;7.870;2022-09-13T02:08:24;15.70;99.90
7117;DHT22;3600;48.568;7.870;2022-09-13T02:11:04;15.70;99.90
7117;DHT22;3600;48.568;7.870;2022-09-13T02:13:40;15.80;99.90
7117;DHT22;3600;48.568;7.870;2022-09-13T02:16:14;16.00;99.90
7117;DHT22;3600;48.568;7.870;2022-09-13T02:18:49;16.00;99.90
7117;DHT22;3600;48.568;7.870;2022-09-13T02:21:21;16.00;99.90
7117;DHT22;3600;48.568;7.870;2022-09-13T02:23:59;15.90;99.90
7117;DHT22;3600;48.568;7.870;2022-09-13T02:26:28;15.90;99.90
7117;DHT22;3600;48.568;7.870;2022-09-13T02:28:57;15.80;99.90
7117;DHT22;3600;48.568;7.870;2022-09-13T02:31:35;15.50;99.90
7117;DHT22;3600;48.568;7.870;2022-09-13T02:34:10;15.40;99.90
7117;DHT22;3600;48.568;7.870;2022-09-13T02:36:39;15.50;99.90
7117;DHT22;3600;48.568;7.870;2022-09-13T02:39:15;15.50;99.90
7117;DHT22;3600;48.568;7.870;2022-09-13T02:44:26;15.40;99.90
7117;DHT22;3600;48.568;7.870;2022-09-13T02:53:33;15.70;99.90
7117;DHT22;3600;48.568;7.870;2022-09-13T02:56:23;15.70;99.90
7117;DHT22;3600;48.568;7.870;2022-09-13T02:59:09;15.80;99.90
7117;DHT22;3600;48.568;7.870;2022-09-13T03:01:41;15.80;99.90
7117;DHT22;3600;48.568;7.870;2022-09-13T03:04:10;15.80;99.90
7117;DHT22;3600;48.568;7.870;2022-09-13T03:06:39;15.60;99.90
7117;DHT22;3600;48.568;7.870;2022-09-13T03:09:06;15.50;99.90
7117;DHT22;3600;48.568;7.870;2022-09-13T03:14:45;15.50;99.90
7117;DHT22;3600;48.568;7.870;2022-09-13T03:28:31;15.60;99.90
7117;DHT22;3600;48.568;7.870;2022-09-13T03:31:11;15.60;99.90
7117;DHT22;3600;48.568;7.870;2022-09-13T03:34:11;15.50;99.90
7117;DHT22;3600;48.568;7.870;2022-09-13T03:36:51;15.50;99.90
7117;DHT22;3600;48.568;7.870;2022-09-13T03:40:09;15.50;99.90
7117;DHT22;3600;48.568;7.870;2022-09-13T03:45:08;15.50;99.90
7117;DHT22;3600;48.568;7.870;2022-09-13T03:47:39;15.50;99.90
7117;DHT22;3600;48.568;7.870;2022-09-13T03:50:08;15.60;99.90
7117;DHT22;3600;48.568;7.870;2022-09-13T03:52:36;15.60;99.90
7117;DHT22;3600;48.568;7.870;2022-09-13T03:55:02;15.50;99.90
7117;DHT22;3600;48.568;7.870;2022-09-13T03:57:29;15.50;99.90
7117;DHT22;3600;48.568;7.870;2022-09-13T03:59:56;15.40;99.90
7117;DHT22;3600;48.568;7.870;2022-09-13T04:02:25;15.40;99.90
7117;DHT22;3600;48.568;7.870;2022-09-13T04:04:52;15.30;99.90
7117;DHT22;3600;48.568;7.870;2022-09-13T04:07:21;15.30;99.90
7117;DHT22;3600;48.568;7.870;2022-09-13T04:09:48;15.40;99.90
7117;DHT22;3600;48.568;7.870;2022-09-13T04:12:16;15.30;99.90
7117;DHT22;3600;48.568;7.870;2022-09-13T04:14:43;15.20;99.90
7117;DHT22;3600;48.568;7.870;2022-09-13T04:17:10;15.20;99.90
7117;DHT22;3600;48.568;7.870;2022-09-13T04:19:38;15.10;99.90
7117;DHT22;3600;48.568;7.870;2022-09-13T04:22:05;15.10;99.90
7117;DHT22;3600;48.568;7.870;2022-09-13T04:24:32;15.10;99.90
7117;DHT22;3600;48.568;7.870;2022-09-13T04:27:00;15.10;99.90
7117;DHT22;3600;48.568;7.870;2022-09-13T04:29:27;15.10;99.90
7117;DHT22;3600;48.568;7.870;2022-09-13T04:31:54;14.90;99.90
7117;DHT22;3600;48.568;7.870;2022-09-13T04:34:21;14.90;99.90
7117;DHT22;3600;48.568;7.870;2022-09-13T04:36:50;14.90;99.90
7117;DHT22;3600;48.568;7.870;2022-09-13T04:39:21;14.80;99.90
7117;DHT22;3600;48.568;7.870;2022-09-13T04:41:50;15.00;99.90
7117;DHT22;3600;48.568;7.870;2022-09-13T04:44:17;15.10;99.90
7117;DHT22;3600;48.568;7.870;2022-09-13T04:46:47;15.20;99.90
7117;DHT22;3600;48.568;7.870;2022-09-13T04:49:16;15.20;99.90
7117;DHT22;3600;48.568;7.870;2022-09-13T04:51:43;15.20;99.90
7117;DHT22;3600;48.568;7.870;2022-09-13T04:54:10;15.30;99.90
7117;DHT22;3600;48.568;7.870;2022-09-13T04:56:42;15.30;99.90
7117;DHT22;3600;48.568;7.870;2022-09-13T04:59:10;15.40;99.90
7117;DHT22;3600;48.568;7.870;2022-09-13T05:01:37;15.50;99.90
7117;DHT22;3600;48.568;7.870;2022-09-13T05:04:05;15.50;99.90
7117;DHT22;3600;48.568;7.870;2022-09-13T05:06:33;15.40;99.90
7117;DHT22;3600;48.568;7.870;2022-09-13T05:09:00;15.20;99.90
7117;DHT22;3600;48.568;7.870;2022-09-13T05:11:27;15.20;99.90
7117;DHT22;3600;48.568;7.870;2022-09-13T05:13:56;15.10;99.90
7117;DHT22;3600;48.568;7.870;2022-09-13T05:16:26;15.10;99.90
7117;DHT22;3600;48.568;7.870;2022-09-13T05:18:53;15.10;99.90
7117;DHT22;3600;48.568;7.870;2022-09-13T05:21:20;15.00;99.90
7117;DHT22;3600;48.568;7.870;2022-09-13T05:23:48;15.20;99.90
7117;DHT22;3600;48.568;7.870;2022-09-13T05:26:16;15.30;99.90
7117;DHT22;3600;48.568;7.870;2022-09-13T05:28:43;15.30;99.90
7117;DHT22;3600;48.568;7.870;2022-09-13T05:31:17;15.20;99.90
7117;DHT22;3600;48.568;7.870;2022-09-13T05:33:45;15.10;99.90
7117;DHT22;3600;48.568;7.870;2022-09-13T05:36:12;15.10;99.90
7117;DHT22;3600;48.568;7.870;2022-09-13T05:38:38;15.10;99.90
7117;DHT22;3600;48.568;7.870;2022-09-13T05:41:05;15.00;99.90
7117;DHT22;3600;48.568;7.870;2022-09-13T05:43:34;15.00;99.90
7117;DHT22;3600;48.568;7.870;2022-09-13T05:46:03;15.10;99.90
7117;DHT22;3600;48.568;7.870;2022-09-13T05:48:31;15.20;99.90
7117;DHT22;3600;48.568;7.870;2022-09-13T05:53:34;15.20;99.90
7117;DHT22;3600;48.568;7.870;2022-09-13T05:56:01;15.30;99.90
7117;DHT22;3600;48.568;7.870;2022-09-13T05:58:28;15.40;99.90
7117;DHT22;3600;48.568;7.870;2022-09-13T06:00:55;15.10;99.90
7117;DHT22;3600;48.568;7.870;2022-09-13T06:03:23;15.00;99.90
7117;DHT22;3600;48.568;7.870;2022-09-13T06:05:54;15.20;99.90
7117;DHT22;3600;48.568;7.870;2022-09-13T06:08:22;15.40;99.90
7117;DHT22;3600;48.568;7.870;2022-09-13T06:11:03;15.50;99.90
7117;DHT22;3600;48.568;7.870;2022-09-13T06:13:31;15.50;99.90
7117;DHT22;3600;48.568;7.870;2022-09-13T06:15:59;15.60;99.90
7117;DHT22;3600;48.568;7.870;2022-09-13T06:18:27;15.50;99.90
7117;DHT22;3600;48.568;7.870;2022-09-13T06:21:08;15.40;99.90
7117;DHT22;3600;48.568;7.870;2022-09-13T06:23:35;15.40;99.90
7117;DHT22;3600;48.568;7.870;2022-09-13T06:26:08;15.40;99.90
7117;DHT22;3600;48.568;7.870;2022-09-13T06:28:36;15.50;99.90
7117;DHT22;3600;48.568;7.870;2022-09-13T06:31:13;15.50;99.90
7117;DHT22;3600;48.568;7.870;2022-09-13T06:33:42;15.60;99.90
7117;DHT22;3600;48.568;7.870;2022-09-13T06:36:16;15.70;99.90
7117;DHT22;3600;48.568;7.870;2022-09-13T06:38:45;15.80;99.90
7117;DHT22;3600;48.568;7.870;2022-09-13T06:41:17;15.90;99.90
7117;DHT22;3600;48.568;7.870;2022-09-13T06:43:45;16.00;99.90
7117;DHT22;3600;48.568;7.870;2022-09-13T06:46:15;15.90;99.90
7117;DHT22;3600;48.568;7.870;2022-09-13T06:48:46;15.90;99.90
7117;DHT22;3600;48.568;7.870;2022-09-13T06:51:20;16.00;99.90
7117;DHT22;3600;48.568;7.870;2022-09-13T06:53:48;16.00;99.90
7117;DHT22;3600;48.568;7.870;2022-09-13T06:56:17;15.90;99.90
7117;DHT22;3600;48.568;7.870;2022-09-13T06:58:46;16.00;99.90
7117;DHT22;3600;48.568;7.870;2022-09-13T07:01:25;16.00;99.90
7117;DHT22;3600;48.568;7.870;2022-09-13T07:03:58;16.10;99.90
7117;DHT22;3600;48.568;7.870;2022-09-13T07:06:27;16.20;99.90
7117;DHT22;3600;48.568;7.870;2022-09-13T07:08:55;16.30;99.90
7117;DHT22;3600;48.568;7.870;2022-09-13T07:11:24;16.30;99.90
7117;DHT22;3600;48.568;7.870;2022-09-13T07:13:56;16.40;99.90
7117;DHT22;3600;48.568;7.870;2022-09-13T07:16:26;16.50;99.90
7117;DHT22;3600;48.568;7.870;2022-09-13T07:18:58;16.70;99.90
7117;DHT22;3600;48.568;7.870;2022-09-13T07:21:26;16.70;99.90
7117;DHT22;3600;48.568;7.870;2022-09-13T07:23:55;16.90;99.90
7117;DHT22;3600;48.568;7.870;2022-09-13T07:26:23;17.10;99.90
7117;DHT22;3600;48.568;7.870;2022-09-13T07:28:53;17.20;99.90
7117;DHT22;3600;48.568;7.870;2022-09-13T07:31:23;17.20;99.90
7117;DHT22;3600;48.568;7.870;2022-09-13T07:33:55;17.20;99.90
7117;DHT22;3600;48.568;7.870;2022-09-13T07:36:23;17.30;99.90
7117;DHT22;3600;48.568;7.870;2022-09-13T07:38:50;17.40;99.90
7117;DHT22;3600;48.568;7.870;2022-09-13T07:41:20;17.50;99.90
7117;DHT22;3600;48.568;7.870;2022-09-13T07:43:48;17.60;99.90
7117;DHT22;3600;48.568;7.870;2022-09-13T07:46:20;17.60;99.90
7117;DHT22;3600;48.568;7.870;2022-09-13T07:48:48;17.60;99.90
7117;DHT22;3600;48.568;7.870;2022-09-13T07:51:19;17.70;99.90
7117;DHT22;3600;48.568;7.870;2022-09-13T07:53:47;18.00;99.90
7117;DHT22;3600;48.568;7.870;2022-09-13T07:56:24;18.10;99.90
7117;DHT22;3600;48.568;7.870;2022-09-13T07:58:52;18.10;99.90
7117;DHT22;3600;48.568;7.870;2022-09-13T08:01:23;18.20;99.90
7117;DHT22;3600;48.568;7.870;2022-09-13T08:04:01;18.20;99.90
7117;DHT22;3600;48.568;7.870;2022-09-13T08:06:29;18.30;99.90
7117;DHT22;3600;48.568;7.870;2022-09-13T08:08:57;18.60;99.90
7117;DHT22;3600;48.568;7.870;2022-09-13T08:11:31;18.60;99.90
7117;DHT22;3600;48.568;7.870;2022-09-13T08:13:59;18.50;99.90
7117;DHT22;3600;48.568;7.870;2022-09-13T08:16:27;18.50;99.90
7117;DHT22;3600;48.568;7.870;2022-09-13T08:18:55;18.50;99.90
7117;DHT22;3600;48.568;7.870;2022-09-13T08:21:23;18.50;99.90
7117;DHT22;3600;48.568;7.870;2022-09-13T08:23:54;18.60;99.90
7117;DHT22;3600;48.568;7.870;2022-09-13T08:26:22;18.70;99.90
7117;DHT22;3600;48.568;7.870;2022-09-13T08:28:53;18.70;99.90
7117;DHT22;3600;48.568;7.870;2022-09-13T08:31:21;18.80;99.90
7117;DHT22;3600;48.568;7.870;2022-09-13T08:33:48;18.80;99.90
7117;DHT22;3600;48.568;7.870;2022-09-13T08:36:16;19.00;99.90
7117;DHT22;3600;48.568;7.870;2022-09-13T08:38:50;19.00;99.90
7117;DHT22;3600;48.568;7.870;2022-09-13T08:44:25;19.20;99.90
7117;DHT22;3600;48.568;7.870;2022-09-13T08:47:12;19.50;99.90
7117;DHT22;3600;48.568;7.870;2022-09-13T08:49:46;19.50;99.90
7117;DHT22;3600;48.568;7.870;2022-09-13T08:54:41;19.50;99.90
7117;DHT22;3600;48.568;7.870;2022-09-13T09:00:05;19.60;99.90
7117;DHT22;3600;48.568;7.870;2022-09-13T09:02:46;20.20;99.90
7117;DHT22;3600;48.568;7.870;2022-09-13T09:05:19;20.30;99.90
7117;DHT22;3600;48.568;7.870;2022-09-13T09:10:36;20.30;99.90
7117;DHT22;3600;48.568;7.870;2022-09-13T09:15:50;20.10;99.90
7117;DHT22;3600;48.568;7.870;2022-09-13T09:18:37;20.50;99.90
7117;DHT22;3600;48.568;7.870;2022-09-13T09:21:11;20.80;99.90
7117;DHT22;3600;48.568;7.870;2022-09-13T09:23:48;21.00;99.90
7117;DHT22;3600;48.568;7.870;2022-09-13T09:26:18;20.70;99.90
7117;DHT22;3600;48.568;7.870;2022-09-13T09:31:45;20.90;99.90
7117;DHT22;3600;48.568;7.870;2022-09-13T09:36:44;20.80;99.90
7117;DHT22;3600;48.568;7.870;2022-09-13T09:39:14;20.80;99.90
7117;DHT22;3600;48.568;7.870;2022-09-13T09:41:43;20.90;99.90
7117;DHT22;3600;48.568;7.870;2022-09-13T09:44:24;21.60;99.90
7117;DHT22;3600;48.568;7.870;2022-09-13T09:49:50;21.90;99.90
7117;DHT22;3600;48.568;7.870;2022-09-13T09:57:49;22.10;99.90
7117;DHT22;3600;48.568;7.870;2022-09-13T10:00:17;22.00;99.90
7117;DHT22;3600;48.568;7.870;2022-09-13T10:02:44;22.20;99.90
7117;DHT22;3600;48.568;7.870;2022-09-13T10:05:13;22.40;99.90
7117;DHT22;3600;48.568;7.870;2022-09-13T10:07:51;22.40;99.90
7117;DHT22;3600;48.568;7.870;2022-09-13T10:10:25;22.60;99.90
7117;DHT22;3600;48.568;7.870;2022-09-13T10:12:54;22.50;99.90
7117;DHT22;3600;48.568;7.870;2022-09-13T10:15:28;22.50;99.90
7117;DHT22;3600;48.568;7.870;2022-09-13T10:18:13;22.60;99.90
7117;DHT22;3600;48.568;7.870;2022-09-13T10:21:05;22.60;99.90
7117;DHT22;3600;48.568;7.870;2022-09-13T10:23:36;22.80;99.90
7117;DHT22;3600;48.568;7.870;2022-09-13T10:26:09;23.10;99.90
7117;DHT22;3600;48.568;7.870;2022-09-13T10:29:07;23.30;99.90
7117;DHT22;3600;48.568;7.870;2022-09-13T10:31:38;23.40;99.90
7117;DHT22;3600;48.568;7.870;2022-09-13T10:36:52;23.50;99.90
7117;DHT22;3600;48.568;7.870;2022-09-13T10:39:22;23.60;99.90
7117;DHT22;3600;48.568;7.870;2022-09-13T10:42:01;23.70;99.90
7117;DHT22;3600;48.568;7.870;2022-09-13T10:44:50;23.80;99.90
7117;DHT22;3600;48.568;7.870;2022-09-13T10:47:21;24.20;99.90
7117;DHT22;3600;48.568;7.870;2022-09-13T10:49:51;24.50;99.90
7117;DHT22;3600;48.568;7.870;2022-09-13T10:52:33;24.70;99.90
7117;DHT22;3600;48.568;7.870;2022-09-13T10:57:47;24.60;99.90
7117;DHT22;3600;48.568;7.870;2022-09-13T11:00:20;24.80;99.90
7117;DHT22;3600;48.568;7.870;2022-09-13T11:11:41;24.80;99.90
7117;DHT22;3600;48.568;7.870;2022-09-13T11:14:56;25.10;99.90
7117;DHT22;3600;48.568;7.870;2022-09-13T11:23:45;25.20;99.90
7117;DHT22;3600;48.568;7.870;2022-09-13T11:34:36;25.40;99.90
7117;DHT22;3600;48.568;7.870;2022-09-13T11:40:24;25.50;99.90
7117;DHT22;3600;48.568;7.870;2022-09-13T11:45:57;25.80;99.90
7117;DHT22;3600;48.568;7.870;2022-09-13T11:56:40;26.00;99.90
7117;DHT22;3600;48.568;7.870;2022-09-13T11:59:17;26.20;99.90
7117;DHT22;3600;48.568;7.870;2022-09-13T12:01:49;26.10;99.90
7117;DHT22;3600;48.568;7.870;2022-09-13T12:04:23;26.10;99.90
7117;DHT22;3600;48.568;7.870;2022-09-13T12:06:56;26.20;99.90
7117;DHT22;3600;48.568;7.870;2022-09-13T12:09:27;26.20;99.90
7117;DHT22;3600;48.568;7.870;2022-09-13T12:19:53;26.50;99.90
7117;DHT22;3600;48.568;7.870;2022-09-13T12:22:26;26.60;99.90
7117;DHT22;3600;48.568;7.870;2022-09-13T12:24:58;26.50;99.90
7117;DHT22;3600;48.568;7.870;2022-09-13T12:27:47;26.50;99.90
7117;DHT22;3600;48.568;7.870;2022-09-13T12:30:19;26.60;99.90
7117;DHT22;3600;48.568;7.870;2022-09-13T12:32:47;26.70;99.90
7117;DHT22;3600;48.568;7.870;2022-09-13T12:35:25;26.60;99.90
7117;DHT22;3600;48.568;7.870;2022-09-13T12:43:57;26.90;99.90
7117;DHT22;3600;48.568;7.870;2022-09-13T12:49:45;26.70;99.90
7117;DHT22;3600;48.568;7.870;2022-09-13T12:52:44;26.60;99.90
7117;DHT22;3600;48.568;7.870;2022-09-13T12:55:30;26.60;99.90
7117;DHT22;3600;48.568;7.870;2022-09-13T13:01:17;26.60;99.90
7117;DHT22;3600;48.568;7.870;2022-09-13T13:04:09;26.60;99.90
7117;DHT22;3600;48.568;7.870;2022-09-13T13:07:02;26.70;99.90
7117;DHT22;3600;48.568;7.870;2022-09-13T13:09:40;26.80;99.90
7117;DHT22;3600;48.568;7.870;2022-09-13T13:12:10;27.00;99.90
7117;DHT22;3600;48.568;7.870;2022-09-13T13:33:55;27.20;99.90
7117;DHT22;3600;48.568;7.870;2022-09-13T13:38:55;27.10;99.90
7117;DHT22;3600;48.568;7.870;2022-09-13T13:46:49;26.70;99.90
7117;DHT22;3600;48.568;7.870;2022-09-13T14:00:21;27.00;99.90
7117;DHT22;3600;48.568;7.870;2022-09-13T14:05:41;27.30;99.90
7117;DHT22;3600;48.568;7.870;2022-09-13T14:08:31;27.40;99.90
7117;DHT22;3600;48.568;7.870;2022-09-13T14:19:56;27.70;99.90
7117;DHT22;3600;48.568;7.870;2022-09-13T14:22:25;27.50;99.90
7117;DHT22;3600;48.568;7.870;2022-09-13T14:24:54;27.70;99.90
7117;DHT22;3600;48.568;7.870;2022-09-13T14:30:01;27.70;99.90
7117;DHT22;3600;48.568;7.870;2022-09-13T14:32:37;27.70;99.90
7117;DHT22;3600;48.568;7.870;2022-09-13T14:35:31;27.60;99.90
7117;DHT22;3600;48.568;7.870;2022-09-13T14:38:17;27.50;99.90
7117;DHT22;3600;48.568;7.870;2022-09-13T14:40:52;27.40;99.90
7117;DHT22;3600;48.568;7.870;2022-09-13T14:43:22;27.40;99.90
7117;DHT22;3600;48.568;7.870;2022-09-13T14:45:52;27.40;99.90
7117;DHT22;3600;48.568;7.870;2022-09-13T14:48:25;27.50;99.90
7117;DHT22;3600;48.568;7.870;2022-09-13T14:50:56;27.50;99.90
7117;DHT22;3600;48.568;7.870;2022-09-13T14:53:27;27.50;99.90
7117;DHT22;3600;48.568;7.870;2022-09-13T14:56:05;27.30;99.90
7117;DHT22;3600;48.568;7.870;2022-09-13T14:58:42;27.20;99.90
7117;DHT22;3600;48.568;7.870;2022-09-13T15:01:14;27.20;99.90
7117;DHT22;3600;48.568;7.870;2022-09-13T15:03:43;27.10;99.90
7117;DHT22;3600;48.568;7.870;2022-09-13T15:06:26;27.10;99.90
7117;DHT22;3600;48.568;7.870;2022-09-13T15:09:21;27.00;99.90
7117;DHT22;3600;48.568;7.870;2022-09-13T15:16:52;26.70;99.90
7117;DHT22;3600;48.568;7.870;2022-09-13T15:21:49;26.70;99.90
7117;DHT22;3600;48.568;7.870;2022-09-13T15:24:29;26.60;99.90
7117;DHT22;3600;48.568;7.870;2022-09-13T15:27:06;26.70;99.90
7117;DHT22;3600;48.568;7.870;2022-09-13T15:29:33;26.60;99.90
7117;DHT22;3600;48.568;7.870;2022-09-13T15:32:04;26.40;99.90
7117;DHT22;3600;48.568;7.870;2022-09-13T15:34:32;26.30;99.90
7117;DHT22;3600;48.568;7.870;2022-09-13T15:37:06;26.20;99.90
7117;DHT22;3600;48.568;7.870;2022-09-13T15:42:11;26.20;99.90
7117;DHT22;3600;48.568;7.870;2022-09-13T15:44:37;26.20;99.90
7117;DHT22;3600;48.568;7.870;2022-09-13T15:47:10;26.20;99.90
7117;DHT22;3600;48.568;7.870;2022-09-13T15:49:46;26.30;99.90
7117;DHT22;3600;48.568;7.870;2022-09-13T15:52:14;26.40;99.90
7117;DHT22;3600;48.568;7.870;2022-09-13T15:54:41;26.40;99.90
7117;DHT22;3600;48.568;7.870;2022-09-13T15:57:18;26.40;99.90
7117;DHT22;3600;48.568;7.870;2022-09-13T15:59:46;26.40;99.90
7117;DHT22;3600;48.568;7.870;2022-09-13T16:02:25;26.40;99.90
7117;DHT22;3600;48.568;7.870;2022-09-13T16:04:57;26.40;99.90
7117;DHT22;3600;48.568;7.870;2022-09-13T16:07:25;26.40;99.90
7117;DHT22;3600;48.568;7.870;2022-09-13T16:09:52;26.20;99.90
7117;DHT22;3600;48.568;7.870;2022-09-13T16:12:19;26.20;99.90
7117;DHT22;3600;48.568;7.870;2022-09-13T16:14:49;26.10;99.90
7117;DHT22;3600;48.568;7.870;2022-09-13T16:17:22;26.00;99.90
7117;DHT22;3600;48.568;7.870;2022-09-13T16:19:50;25.90;99.90
7117;DHT22;3600;48.568;7.870;2022-09-13T16:22:17;25.80;99.90
7117;DHT22;3600;48.568;7.870;2022-09-13T16:24:43;25.80;99.90
7117;DHT22;3600;48.568;7.870;2022-09-13T16:27:15;25.70;99.90
7117;DHT22;3600;48.568;7.870;2022-09-13T16:29:43;25.60;99.90
7117;DHT22;3600;48.568;7.870;2022-09-13T16:32:10;25.60;99.90
7117;DHT22;3600;48.568;7.870;2022-09-13T16:34:40;25.50;99.90
7117;DHT22;3600;48.568;7.870;2022-09-13T16:37:06;25.40;99.90
7117;DHT22;3600;48.568;7.870;2022-09-13T16:39:33;25.30;99.90
7117;DHT22;3600;48.568;7.870;2022-09-13T16:42:00;25.20;99.90
7117;DHT22;3600;48.568;7.870;2022-09-13T16:44:27;25.20;99.90
7117;DHT22;3600;48.568;7.870;2022-09-13T16:46:54;25.10;99.90
7117;DHT22;3600;48.568;7.870;2022-09-13T16:49:20;25.00;99.90
7117;DHT22;3600;48.568;7.870;2022-09-13T16:51:47;25.00;99.90
7117;DHT22;3600;48.568;7.870;2022-09-13T16:54:14;24.90;99.90
7117;DHT22;3600;48.568;7.870;2022-09-13T16:56:41;24.80;99.90
7117;DHT22;3600;48.568;7.870;2022-09-13T16:59:08;24.80;99.90
7117;DHT22;3600;48.568;7.870;2022-09-13T17:01:35;24.70;99.90
7117;DHT22;3600;48.568;7.870;2022-09-13T17:04:02;24.60;99.90
7117;DHT22;3600;48.568;7.870;2022-09-13T17:06:29;24.50;99.90
7117;DHT22;3600;48.568;7.870;2022-09-13T17:09:00;24.50;99.90
7117;DHT22;3600;48.568;7.870;2022-09-13T17:11:30;24.50;99.90
7117;DHT22;3600;48.568;7.870;2022-09-13T17:13:58;24.40;99.90
7117;DHT22;3600;48.568;7.870;2022-09-13T17:16:28;24.40;99.90
7117;DHT22;3600;48.568;7.870;2022-09-13T17:18:57;24.30;99.90
7117;DHT22;3600;48.568;7.870;2022-09-13T17:21:25;24.20;99.90
7117;DHT22;3600;48.568;7.870;2022-09-13T17:23:52;24.20;99.90
7117;DHT22;3600;48.568;7.870;2022-09-13T17:26:20;24.20;99.90
7117;DHT22;3600;48.568;7.870;2022-09-13T17:28:47;24.20;99.90
7117;DHT22;3600;48.568;7.870;2022-09-13T17:31:14;24.10;99.90
7117;DHT22;3600;48.568;7.870;2022-09-13T17:33:41;24.10;99.90
7117;DHT22;3600;48.568;7.870;2022-09-13T17:36:10;24.10;99.90
7117;DHT22;3600;48.568;7.870;2022-09-13T17:38:37;24.00;99.90
7117;DHT22;3600;48.568;7.870;2022-09-13T17:41:06;24.00;99.90
7117;DHT22;3600;48.568;7.870;2022-09-13T17:43:35;23.90;99.90
7117;DHT22;3600;48.568;7.870;2022-09-13T17:46:09;23.90;99.90
7117;DHT22;3600;48.568;7.870;2022-09-13T17:48:36;23.80;99.90
7117;DHT22;3600;48.568;7.870;2022-09-13T17:51:06;23.80;99.90
7117;DHT22;3600;48.568;7.870;2022-09-13T17:53:40;23.80;99.90
7117;DHT22;3600;48.568;7.870;2022-09-13T17:56:07;23.80;99.90
7117;DHT22;3600;48.568;7.870;2022-09-13T17:58:35;23.70;99.90
7117;DHT22;3600;48.568;7.870;2022-09-13T18:01:08;23.70;99.90
7117;DHT22;3600;48.568;7.870;2022-09-13T18:03:36;23.60;99.90
7117;DHT22;3600;48.568;7.870;2022-09-13T18:06:05;23.60;99.90
7117;DHT22;3600;48.568;7.870;2022-09-13T18:08:34;23.50;99.90
7117;DHT22;3600;48.568;7.870;2022-09-13T18:11:11;23.60;99.90
7117;DHT22;3600;48.568;7.870;2022-09-13T18:13:41;23.50;99.90
7117;DHT22;3600;48.568;7.870;2022-09-13T18:16:15;23.50;99.90
7117;DHT22;3600;48.568;7.870;2022-09-13T18:18:48;23.40;99.90
7117;DHT22;3600;48.568;7.870;2022-09-13T18:21:16;23.30;99.90
7117;DHT22;3600;48.568;7.870;2022-09-13T18:23:48;23.20;99.90
7117;DHT22;3600;48.568;7.870;2022-09-13T18:26:16;23.20;99.90
7117;DHT22;3600;48.568;7.870;2022-09-13T18:28:44;23.20;99.90
7117;DHT22;3600;48.568;7.870;2022-09-13T18:31:15;23.20;99.90
7117;DHT22;3600;48.568;7.870;2022-09-13T18:33:43;23.10;99.90
7117;DHT22;3600;48.568;7.870;2022-09-13T18:36:13;23.10;99.90
7117;DHT22;3600;48.568;7.870;2022-09-13T18:38:45;23.10;99.90
7117;DHT22;3600;48.568;7.870;2022-09-13T18:41:21;23.10;99.90
7117;DHT22;3600;48.568;7.870;2022-09-13T18:43:50;23.10;99.90
7117;DHT22;3600;48.568;7.870;2022-09-13T18:46:24;23.00;99.90
7117;DHT22;3600;48.568;7.870;2022-09-13T18:48:52;23.00;99.90
7117;DHT22;3600;48.568;7.870;2022-09-13T18:51:21;23.00;99.90
7117;DHT22;3600;48.568;7.870;2022-09-13T18:53:49;23.00;99.90
7117;DHT22;3600;48.568;7.870;2022-09-13T18:56:18;22.90;99.90
7117;DHT22;3600;48.568;7.870;2022-09-13T18:58:46;22.80;99.90
7117;DHT22;3600;48.568;7.870;2022-09-13T19:01:19;22.80;99.90
7117;DHT22;3600;48.568;7.870;2022-09-13T19:03:57;22.80;99.90
7117;DHT22;3600;48.568;7.870;2022-09-13T19:06:30;22.70;99.90
7117;DHT22;3600;48.568;7.870;2022-09-13T19:08:58;22.70;99.90
7117;DHT22;3600;48.568;7.870;2022-09-13T19:11:27;22.70;99.90
7117;DHT22;3600;48.568;7.870;2022-09-13T19:14:23;22.60;99.90
7117;DHT22;3600;48.568;7.870;2022-09-13T19:16:51;22.60;99.90
7117;DHT22;3600;48.568;7.870;2022-09-13T19:19:19;22.60;99.90
7117;DHT22;3600;48.568;7.870;2022-09-13T19:21:46;22.60;99.90
7117;DHT22;3600;48.568;7.870;2022-09-13T19:24:13;22.50;99.90
7117;DHT22;3600;48.568;7.870;2022-09-13T19:26:49;22.60;99.90
7117;DHT22;3600;48.568;7.870;2022-09-13T19:29:19;22.60;99.90
7117;DHT22;3600;48.568;7.870;2022-09-13T19:31:47;22.60;99.90
7117;DHT22;3600;48.568;7.870;2022-09-13T19:34:17;22.50;99.90
7117;DHT22;3600;48.568;7.870;2022-09-13T19:36:44;22.50;99.90
7117;DHT22;3600;48.568;7.870;2022-09-13T19:39:11;22.30;99.90
7117;DHT22;3600;48.568;7.870;2022-09-13T19:41:39;22.30;99.90
7117;DHT22;3600;48.568;7.870;2022-09-13T19:44:06;22.30;99.90
7117;DHT22;3600;48.568;7.870;2022-09-13T19:46:38;22.20;99.90
7117;DHT22;3600;48.568;7.870;2022-09-13T19:49:06;22.20;99.90
7117;DHT22;3600;48.568;7.870;2022-09-13T19:51:36;22.10;99.90
7117;DHT22;3600;48.568;7.870;2022-09-13T19:54:04;22.20;99.90
7117;DHT22;3600;48.568;7.870;2022-09-13T19:56:33;22.20;99.90
7117;DHT22;3600;48.568;7.870;2022-09-13T19:59:01;22.10;99.90